createdAt,value
2023-02-03T00:01:30.315Z,3.40
2023-02-03T00:03:56.753Z,4.00
2023-02-03T00:06:23.273Z,3.00
2023-02-03T00:08:50.067Z,3.00
2023-02-03T00:11:16.501Z,4.00
2023-02-03T00:13:42.922Z,4.20
2023-02-03T00:16:09.375Z,3.00
2023-02-03T00:18:35.795Z,4.00
2023-02-03T00:21:02.243Z,3.50
2023-02-03T00:23:31.993Z,4.80
2023-02-03T00:25:59.027Z,3.00
2023-02-03T00:28:28.252Z,3.50
2023-02-03T00:30:54.626Z,5.00
2023-02-03T00:33:21.144Z,4.00
2023-02-03T00:35:47.517Z,3.00
2023-02-03T00:38:13.965Z,3.00
2023-02-03T00:40:40.617Z,5.00
2023-02-03T00:43:07.006Z,5.00
2023-02-03T00:45:33.409Z,5.00
2023-02-03T00:47:59.820Z,4.00
2023-02-03T00:50:26.615Z,4.50
2023-02-03T00:52:53.232Z,5.00
2023-02-03T00:55:19.609Z,5.00
2023-02-03T00:57:46.135Z,4.00
2023-02-03T01:00:12.723Z,4.00
2023-02-03T01:02:39.243Z,5.20
2023-02-03T01:05:05.883Z,5.00
2023-02-03T01:07:33.197Z,4.00
2023-02-03T01:09:59.591Z,5.00
2023-02-03T01:12:25.971Z,5.00
2023-02-03T01:14:52.365Z,5.00
2023-02-03T01:17:18.753Z,3.60
2023-02-03T01:19:45.159Z,5.00
2023-02-03T01:22:11.554Z,6.00
2023-02-03T01:24:37.988Z,5.40
2023-02-03T01:27:06.210Z,3.75
2023-02-03T01:29:32.657Z,5.00
2023-02-03T01:31:59.112Z,5.00
2023-02-03T01:34:25.554Z,4.00
2023-02-03T01:36:51.926Z,4.40
2023-02-03T01:39:18.411Z,5.00
2023-02-03T01:41:44.828Z,5.00
2023-02-03T01:44:30.460Z,4.00
2023-02-03T01:46:56.889Z,4.40
2023-02-03T01:49:27.149Z,4.00
2023-02-03T01:51:54.249Z,4.80
2023-02-03T01:54:23.886Z,6.00
2023-02-03T01:56:54.652Z,4.60
2023-02-03T01:59:22.554Z,5.00
2023-02-03T02:01:49.694Z,5.00
2023-02-03T02:04:16.356Z,5.00
2023-02-03T02:06:42.762Z,4.80
2023-02-03T02:09:09.352Z,5.00
2023-02-03T02:11:35.793Z,5.00
2023-02-03T02:14:02.763Z,4.00
2023-02-03T02:16:29.094Z,5.00
2023-02-03T02:18:55.473Z,5.00
2023-02-03T02:21:24.823Z,5.00
2023-02-03T02:23:52.701Z,4.00
2023-02-03T02:26:19.130Z,5.00
2023-02-03T02:29:05.060Z,4.20
2023-02-03T02:31:34.319Z,5.00
2023-02-03T02:34:03.802Z,5.00
2023-02-03T02:36:36.098Z,4.00
2023-02-03T02:39:02.510Z,5.00
2023-02-03T02:41:28.889Z,4.00
2023-02-03T02:44:09.470Z,4.00
2023-02-03T02:46:35.975Z,4.00
2023-02-03T02:49:08.551Z,4.00
2023-02-03T02:51:36.993Z,3.67
2023-02-03T02:54:05.150Z,5.00
2023-02-03T02:56:33.158Z,3.00
2023-02-03T02:59:01.679Z,3.00
2023-02-03T03:01:28.072Z,4.00
2023-02-03T03:03:54.709Z,5.00
2023-02-03T03:06:24.146Z,3.00
2023-02-03T03:08:58.995Z,4.00
2023-02-03T03:11:27.262Z,4.00
2023-02-03T03:13:54.335Z,4.00
2023-02-03T03:16:23.544Z,3.00
2023-02-03T03:18:53.931Z,2.60
2023-02-03T03:21:24.589Z,3.00
2023-02-03T03:23:52.117Z,4.00
2023-02-03T03:26:23.079Z,4.00
2023-02-03T03:28:51.717Z,3.60
2023-02-03T03:31:19.062Z,3.00
2023-02-03T03:33:46.540Z,4.00
2023-02-03T03:36:36.008Z,3.00
2023-02-03T03:39:05.854Z,5.00
2023-02-03T03:41:43.581Z,5.00
2023-02-03T03:44:13.778Z,5.00
2023-02-03T03:46:43.464Z,3.50
2023-02-03T03:49:10.789Z,3.75
2023-02-03T03:51:40.451Z,4.00
2023-02-03T03:54:08.883Z,4.00
2023-02-03T03:56:39.674Z,3.80
2023-02-03T03:59:07.419Z,4.00
2023-02-03T04:01:34.087Z,5.00
2023-02-03T04:04:02.827Z,4.00
2023-02-03T04:06:29.206Z,6.00
2023-02-03T04:08:56.089Z,5.00
2023-02-03T04:11:41.201Z,5.00
2023-02-03T04:14:07.624Z,4.00
2023-02-03T04:16:34.065Z,5.00
2023-02-03T04:19:00.461Z,4.00
2023-02-03T04:21:26.881Z,5.00
2023-02-03T04:23:53.292Z,3.50
2023-02-03T04:26:19.710Z,4.00
2023-02-03T04:28:46.166Z,5.00
2023-02-03T04:31:12.714Z,4.00
2023-02-03T04:33:39.253Z,4.00
2023-02-03T04:36:05.844Z,5.40
2023-02-03T04:38:33.296Z,4.00
2023-02-03T04:40:59.688Z,5.00
2023-02-03T04:43:26.147Z,4.00
2023-02-03T04:45:52.584Z,4.00
2023-02-03T04:48:19.107Z,4.20
2023-02-03T04:50:45.477Z,4.00
2023-02-03T04:53:11.859Z,4.00
2023-02-03T04:55:38.314Z,5.00
2023-02-03T04:58:04.949Z,4.00
2023-02-03T05:00:31.395Z,3.40
2023-02-03T05:02:57.902Z,5.80
2023-02-03T05:05:24.468Z,4.00
2023-02-03T05:07:50.885Z,5.00
2023-02-03T05:10:17.259Z,4.00
2023-02-03T05:12:44.081Z,4.60
2023-02-03T05:15:10.646Z,6.00
2023-02-03T05:17:39.877Z,3.00
2023-02-03T05:20:06.712Z,3.40
2023-02-03T05:22:35.297Z,4.00
2023-02-03T05:25:02.091Z,5.00
2023-02-03T05:27:28.489Z,3.60
2023-02-03T05:29:54.918Z,4.00
2023-02-03T05:32:21.378Z,4.00
2023-02-03T05:34:47.767Z,4.00
2023-02-03T05:37:14.159Z,5.00
2023-02-03T05:39:40.588Z,5.00
2023-02-03T05:42:06.974Z,5.00
2023-02-03T05:44:33.392Z,5.00
2023-02-03T05:47:00.039Z,6.00
2023-02-03T05:49:26.509Z,5.00
2023-02-03T05:51:53.915Z,5.25
2023-02-03T05:54:20.325Z,9.20
2023-02-03T05:56:46.798Z,15.50
2023-02-03T05:59:13.280Z,5.00
2023-02-03T06:01:39.660Z,6.00
2023-02-03T06:04:06.373Z,3.00
2023-02-03T06:06:35.926Z,5.00
2023-02-03T06:09:03.732Z,6.00
2023-02-03T06:11:30.312Z,4.00
2023-02-03T06:13:58.674Z,4.00
2023-02-03T06:16:25.939Z,5.40
2023-02-03T06:18:52.947Z,5.75
2023-02-03T06:21:19.504Z,7.50
2023-02-03T06:23:45.935Z,6.00
2023-02-03T06:26:12.358Z,4.20
2023-02-03T06:28:38.777Z,4.00
2023-02-03T06:31:05.856Z,4.00
2023-02-03T06:33:32.627Z,4.00
2023-02-03T06:35:59.362Z,3.00
2023-02-03T06:38:25.785Z,3.25
2023-02-03T06:40:52.218Z,4.00
2023-02-03T06:43:18.724Z,4.00
2023-02-03T06:45:45.994Z,5.80
2023-02-03T06:48:12.478Z,10.20
2023-02-03T06:50:38.975Z,6.00
2023-02-03T06:53:05.350Z,4.80
2023-02-03T06:55:31.740Z,4.20
2023-02-03T06:57:58.167Z,4.20
2023-02-03T07:00:24.579Z,5.00
2023-02-03T07:02:55.273Z,19.20
2023-02-03T07:05:22.171Z,14.00
2023-02-03T07:07:48.598Z,16.00
2023-02-03T07:10:15.278Z,15.00
2023-02-03T07:12:41.681Z,22.60
2023-02-03T07:15:08.410Z,12.00
2023-02-03T07:17:35.097Z,9.00
2023-02-03T07:20:01.607Z,8.00
2023-02-03T07:22:28.030Z,7.00
2023-02-03T07:24:54.419Z,13.20
2023-02-03T07:27:20.866Z,15.00
2023-02-03T07:29:47.384Z,9.00
2023-02-03T07:32:13.882Z,14.00
2023-02-03T07:34:40.318Z,19.00
2023-02-03T07:37:06.844Z,13.00
2023-02-03T07:39:34.032Z,14.00
2023-02-03T07:42:00.457Z,10.00
2023-02-03T07:44:26.884Z,6.00
2023-02-03T07:46:53.310Z,9.00
2023-02-03T07:49:19.715Z,3.40
2023-02-03T07:51:46.091Z,5.00
2023-02-03T07:54:12.595Z,6.00
2023-02-03T07:56:39.032Z,4.00
2023-02-03T07:59:05.431Z,17.60
2023-02-03T08:01:32.213Z,14.00
2023-02-03T08:03:58.648Z,14.00
2023-02-03T08:06:25.154Z,18.00
2023-02-03T08:08:51.587Z,20.00
2023-02-03T08:11:18.335Z,12.00
2023-02-03T08:13:44.735Z,6.00
2023-02-03T08:16:11.169Z,6.00
2023-02-03T08:18:37.569Z,4.00
2023-02-03T08:21:04.895Z,7.00
2023-02-03T08:23:31.556Z,5.60
2023-02-03T08:25:58.191Z,9.00
2023-02-03T08:28:24.665Z,4.40
2023-02-03T08:30:51.300Z,7.00
2023-02-03T08:36:02.989Z,6.00
2023-02-03T08:38:29.402Z,7.00
2023-02-03T08:40:55.892Z,5.00
2023-02-03T08:43:22.452Z,4.75
2023-02-03T08:45:48.980Z,8.00
2023-02-03T08:48:15.502Z,11.00
2023-02-03T08:50:44.514Z,12.60
2023-02-03T08:53:11.438Z,15.00
2023-02-03T08:55:40.676Z,6.00
2023-02-03T08:58:07.226Z,3.25
2023-02-03T09:00:33.844Z,5.50
2023-02-03T09:03:00.318Z,8.00
2023-02-03T09:05:26.832Z,5.40
2023-02-03T09:07:53.304Z,6.00
2023-02-03T09:10:19.819Z,2.33
2023-02-03T09:12:46.263Z,3.80
2023-02-03T09:15:12.798Z,4.00
2023-02-03T09:17:39.373Z,5.80
2023-02-03T09:20:06.221Z,4.00
2023-02-03T09:22:32.714Z,4.20
2023-02-03T09:24:59.365Z,4.50
2023-02-03T09:27:25.898Z,4.00
2023-02-03T09:29:52.393Z,3.00
2023-02-03T09:32:18.839Z,4.00
2023-02-03T09:34:45.342Z,2.00
2023-02-03T09:37:11.824Z,4.00
2023-02-03T09:39:38.360Z,10.80
2023-02-03T09:42:10.755Z,6.25
2023-02-03T09:44:39.975Z,8.00
2023-02-03T09:47:18.642Z,4.00
2023-02-03T09:49:52.391Z,4.20
2023-02-03T09:52:20.848Z,4.50
2023-02-03T09:54:57.393Z,3.00
2023-02-03T09:57:25.363Z,3.00
2023-02-03T09:59:53.119Z,4.00
2023-02-03T10:02:25.409Z,3.00
2023-02-03T10:04:57.587Z,3.00
2023-02-03T10:07:28.254Z,3.00
2023-02-03T10:09:59.179Z,3.00
2023-02-03T10:12:37.869Z,3.00
2023-02-03T10:15:22.746Z,3.00
2023-02-03T10:18:01.260Z,3.00
2023-02-03T10:20:35.990Z,2.00
2023-02-03T10:23:06.608Z,2.20
2023-02-03T10:25:57.169Z,3.00
2023-02-03T10:28:27.126Z,2.60
2023-02-03T10:30:56.585Z,3.00
2023-02-03T10:33:25.887Z,2.00
2023-02-03T10:35:58.238Z,2.60
2023-02-03T10:38:35.927Z,2.00
2023-02-03T10:41:03.294Z,3.00
2023-02-03T10:43:50.407Z,2.00
2023-02-03T10:46:18.139Z,3.00
2023-02-03T10:48:44.642Z,2.00
2023-02-03T10:51:32.046Z,2.75
2023-02-03T10:53:58.797Z,4.00
2023-02-03T10:56:38.780Z,2.75
2023-02-03T10:59:06.720Z,3.00
2023-02-03T11:01:39.246Z,3.00
2023-02-03T11:04:06.694Z,3.00
2023-02-03T11:06:33.914Z,2.40
2023-02-03T11:09:00.577Z,2.25
2023-02-03T11:11:28.427Z,2.00
2023-02-03T11:13:56.119Z,2.25
2023-02-03T11:16:26.569Z,1.25
2023-02-03T11:19:07.433Z,2.00
2023-02-03T11:21:42.698Z,3.00
2023-02-03T11:24:12.247Z,2.50
2023-02-03T11:26:43.614Z,3.00
2023-02-03T11:29:16.901Z,1.40
2023-02-03T11:31:47.105Z,4.00
2023-02-03T11:34:17.704Z,5.00
2023-02-03T11:36:44.219Z,2.20
2023-02-03T11:39:16.497Z,2.00
2023-02-03T11:41:42.971Z,3.00
2023-02-03T11:44:17.886Z,2.60
2023-02-03T11:46:45.739Z,2.25
2023-02-03T11:49:15.115Z,1.00
2023-02-03T11:51:50.871Z,2.25
2023-02-03T11:54:17.320Z,3.00
2023-02-03T11:56:56.972Z,4.00
2023-02-03T11:59:36.068Z,4.00
2023-02-03T12:02:21.594Z,3.00
2023-02-03T12:04:48.040Z,2.00
2023-02-03T12:07:28.395Z,3.00
2023-02-03T12:10:01.369Z,2.40
2023-02-03T12:12:38.543Z,3.80
2023-02-03T12:15:23.399Z,1.60
2023-02-03T12:18:00.549Z,2.00
2023-02-03T12:20:45.756Z,3.00
2023-02-03T12:23:12.243Z,3.00
2023-02-03T12:25:54.052Z,3.25
2023-02-03T12:28:35.673Z,3.00
2023-02-03T12:31:11.058Z,2.75
2023-02-03T12:33:44.603Z,3.00
2023-02-03T12:36:18.664Z,2.00
2023-02-03T12:38:49.292Z,3.00
2023-02-03T12:41:22.768Z,1.75
2023-02-03T12:43:52.587Z,2.00
2023-02-03T12:46:28.050Z,2.00
2023-02-03T12:49:09.637Z,3.00
2023-02-03T12:51:48.377Z,6.00
2023-02-03T12:54:33.305Z,2.00
2023-02-03T12:57:14.327Z,1.20
2023-02-03T12:59:42.338Z,2.00
2023-02-03T13:02:18.459Z,1.25
2023-02-03T13:04:49.634Z,2.00
2023-02-03T13:07:30.194Z,2.75
2023-02-03T13:10:03.838Z,2.50
2023-02-03T13:12:36.539Z,3.40
2023-02-03T13:15:16.447Z,8.00
2023-02-03T13:17:48.750Z,5.00
2023-02-03T13:20:19.074Z,2.25
2023-02-03T13:22:45.767Z,2.67
2023-02-03T13:25:23.580Z,3.00
2023-02-03T13:28:01.068Z,2.00
2023-02-03T13:30:33.751Z,3.00
2023-02-03T13:33:21.088Z,3.00
2023-02-03T13:35:56.359Z,2.60
2023-02-03T13:38:41.783Z,2.80
2023-02-03T13:41:20.467Z,4.75
2023-02-03T13:43:49.667Z,2.20
2023-02-03T13:46:27.720Z,3.00
2023-02-03T13:48:54.658Z,4.00
2023-02-03T13:51:23.973Z,3.00
2023-02-03T13:53:52.275Z,2.60
2023-02-03T13:56:21.062Z,3.20
2023-02-03T13:59:01.864Z,3.00
2023-02-03T14:01:36.561Z,3.00
2023-02-03T14:04:04.991Z,3.00
2023-02-03T14:06:40.453Z,4.00
2023-02-03T14:09:20.906Z,1.75
2023-02-03T14:11:49.276Z,2.00
2023-02-03T14:14:15.712Z,2.00
2023-02-03T14:16:49.148Z,3.00
2023-02-03T14:19:21.900Z,3.00
2023-02-03T14:21:51.999Z,3.00
2023-02-03T14:24:18.927Z,4.00
2023-02-03T14:26:47.107Z,4.00
2023-02-03T14:29:30.152Z,2.40
2023-02-03T14:32:14.725Z,2.50
2023-02-03T14:34:49.223Z,2.67
2023-02-03T14:37:15.681Z,1.40
2023-02-03T14:40:01.129Z,3.00
2023-02-03T14:42:46.253Z,3.00
2023-02-03T14:45:18.673Z,3.80
2023-02-03T14:48:03.593Z,3.00
2023-02-03T14:50:30.174Z,2.00
2023-02-03T14:53:09.112Z,1.60
2023-02-03T14:55:44.535Z,2.00
2023-02-03T14:58:19.424Z,1.75
2023-02-03T15:00:46.091Z,1.00
2023-02-03T15:03:15.087Z,2.00
2023-02-03T15:05:43.332Z,2.20
2023-02-03T15:08:28.402Z,1.50
2023-02-03T15:10:54.871Z,2.00
2023-02-03T15:13:29.441Z,1.00
2023-02-03T15:16:00.313Z,2.00
2023-02-03T15:18:31.669Z,2.00
2023-02-03T15:20:58.621Z,1.80
2023-02-03T15:23:38.710Z,2.00
2023-02-03T15:26:13.027Z,3.00
2023-02-03T15:28:39.641Z,3.00
2023-02-03T15:31:22.748Z,3.40
2023-02-03T15:33:50.248Z,2.00
2023-02-03T15:36:25.736Z,4.00
2023-02-03T15:38:56.522Z,2.00
2023-02-03T15:41:24.358Z,4.00
2023-02-03T15:43:53.859Z,4.00
2023-02-03T15:46:26.282Z,3.60
2023-02-03T15:48:52.756Z,3.00
2023-02-03T15:51:21.267Z,4.00
2023-02-03T15:53:58.300Z,3.00
2023-02-03T15:56:27.814Z,1.00
2023-02-03T15:58:54.674Z,2.40
2023-02-03T16:01:23.559Z,2.50
2023-02-03T16:03:54.167Z,2.00
2023-02-03T16:06:30.555Z,3.00
2023-02-03T16:08:58.206Z,3.00
2023-02-03T16:11:27.027Z,5.00
2023-02-03T16:13:56.959Z,5.00
2023-02-03T16:16:55.187Z,2.80
2023-02-03T16:19:30.113Z,3.00
2023-02-03T16:21:57.482Z,2.40
2023-02-03T16:24:37.707Z,2.80
2023-02-03T16:27:19.609Z,4.00
2023-02-03T16:30:04.582Z,3.50
2023-02-03T16:32:49.616Z,3.00
2023-02-03T16:35:34.545Z,3.00
2023-02-03T16:38:39.604Z,3.40
2023-02-03T16:41:33.684Z,5.00
2023-02-03T16:44:18.678Z,7.00
2023-02-03T16:47:05.617Z,4.50
2023-02-03T16:49:53.688Z,5.00
2023-02-03T16:52:22.889Z,4.00
2023-02-03T16:54:51.431Z,5.00
2023-02-03T16:57:18.681Z,3.60
2023-02-03T16:59:45.393Z,3.20
2023-02-03T17:02:11.962Z,3.00
2023-02-03T17:04:38.474Z,6.60
2023-02-03T17:07:05.342Z,3.25
2023-02-03T17:09:35.227Z,3.00
2023-02-03T17:12:02.295Z,3.00
2023-02-03T17:14:29.202Z,3.25
2023-02-03T17:16:56.213Z,4.00
2023-02-03T17:19:22.750Z,4.50
2023-02-03T17:21:50.419Z,4.00
2023-02-03T17:24:17.108Z,3.00
2023-02-03T17:26:43.575Z,3.00
2023-02-03T17:29:10.304Z,3.00
2023-02-03T17:31:36.949Z,3.50
2023-02-03T17:34:03.520Z,4.00
2023-02-03T17:36:29.991Z,5.00
2023-02-03T17:55:22.778Z,11.00
2023-02-03T17:57:49.250Z,11.00
2023-02-03T18:00:15.880Z,8.80
2023-02-03T18:02:45.442Z,15.60
2023-02-03T18:05:11.974Z,11.00
2023-02-03T18:07:38.531Z,7.00
2023-02-03T18:10:05.178Z,10.40
2023-02-03T18:12:31.619Z,11.00
2023-02-03T18:14:58.204Z,8.00
2023-02-03T18:17:24.764Z,6.00
2023-02-03T18:19:55.735Z,9.40
2023-02-03T18:22:22.585Z,8.25
2023-02-03T18:24:52.601Z,9.20
2023-02-03T18:27:19.144Z,12.00
2023-02-03T18:29:46.457Z,10.00
2023-02-03T18:32:14.080Z,10.00
2023-02-03T18:34:40.647Z,8.00
2023-02-03T18:37:07.692Z,8.20
2023-02-03T18:39:34.364Z,10.00
2023-02-03T18:42:01.011Z,9.00
2023-02-03T18:44:27.651Z,9.00
2023-02-03T18:46:54.746Z,6.00
2023-02-03T18:49:21.563Z,8.80
2023-02-03T18:51:48.082Z,6.00
2023-02-03T18:54:14.593Z,5.00
2023-02-03T18:56:41.261Z,9.50
2023-02-03T18:59:08.833Z,8.00
2023-02-03T19:01:35.703Z,8.00
2023-02-03T19:04:03.361Z,5.00
2023-02-03T19:06:30.691Z,5.00
2023-02-03T19:08:58.224Z,4.25
2023-02-03T19:11:25.271Z,5.60
2023-02-03T19:13:51.862Z,7.00
2023-02-03T19:16:19.003Z,5.00
2023-02-03T19:18:45.595Z,5.00
2023-02-03T19:21:12.694Z,4.80
2023-02-03T19:23:39.669Z,5.00
2023-02-03T19:26:06.142Z,7.00
2023-02-03T19:28:34.539Z,6.00
2023-02-03T19:31:08.503Z,6.50
2023-02-03T19:33:35.643Z,6.00
2023-02-03T19:36:02.161Z,7.00
2023-02-03T19:38:28.661Z,5.00
2023-02-03T19:40:55.529Z,7.00
2023-02-03T19:43:22.028Z,7.00
2023-02-03T19:45:48.575Z,5.00
2023-02-03T19:48:15.097Z,6.00
2023-02-03T19:50:45.891Z,5.00
2023-02-03T19:53:13.644Z,6.60
2023-02-03T19:55:41.774Z,7.25
2023-02-03T19:58:08.256Z,6.67
2023-02-03T20:00:35.557Z,6.00
2023-02-03T20:03:02.460Z,7.00
2023-02-03T20:05:29.848Z,8.00
2023-02-03T20:07:56.304Z,6.60
2023-02-03T20:10:26.331Z,6.00
2023-02-03T20:12:53.219Z,5.00
2023-02-03T20:15:19.720Z,6.00
2023-02-03T20:17:46.154Z,6.00
2023-02-03T20:20:12.652Z,8.00
2023-02-03T20:22:39.132Z,6.50
2023-02-03T20:25:06.711Z,5.40
2023-02-03T20:27:33.224Z,6.50
2023-02-03T20:29:59.719Z,6.00
2023-02-03T20:32:26.245Z,5.00
2023-02-03T20:34:52.812Z,7.00
2023-02-03T20:37:19.313Z,5.50
2023-02-03T20:39:45.786Z,5.00
2023-02-03T20:42:16.765Z,6.25
2023-02-03T20:44:43.624Z,5.00
2023-02-03T20:47:14.547Z,6.00
2023-02-03T20:49:41.087Z,5.00
2023-02-03T20:52:12.609Z,6.40
2023-02-03T20:54:39.723Z,5.40
2023-02-03T20:57:10.260Z,6.00
2023-02-03T20:59:36.781Z,6.00
2023-02-03T21:02:10.681Z,7.00
2023-02-03T21:04:55.747Z,4.75
2023-02-03T21:07:23.063Z,6.00
2023-02-03T21:09:49.772Z,5.00
2023-02-03T21:12:16.365Z,5.00
2023-02-03T21:14:43.900Z,5.00
2023-02-03T21:17:17.883Z,6.40
2023-02-03T21:19:44.452Z,5.00
2023-02-03T21:22:30.412Z,5.00
2023-02-03T21:25:00.917Z,5.00
2023-02-03T21:27:31.980Z,6.00
2023-02-03T21:29:59.397Z,7.00
2023-02-03T21:32:26.818Z,5.60
2023-02-03T21:34:53.315Z,5.00
2023-02-03T21:37:37.958Z,6.00
2023-02-03T21:40:23.977Z,5.50
2023-02-03T21:42:50.738Z,6.00
2023-02-03T21:45:17.302Z,5.00
2023-02-03T21:47:44.840Z,7.00
2023-02-03T21:50:31.032Z,6.60
2023-02-03T21:53:03.265Z,6.00
2023-02-03T21:55:29.731Z,6.00
2023-02-03T21:57:56.195Z,4.00
2023-02-03T22:00:47.480Z,5.25
2023-02-03T22:03:25.241Z,5.00
2023-02-03T22:05:52.531Z,5.00
2023-02-03T22:08:19.748Z,5.00
2023-02-03T22:10:46.660Z,5.40
2023-02-03T22:13:13.342Z,5.00
2023-02-03T22:15:40.339Z,5.00
2023-02-03T22:18:06.820Z,4.00
2023-02-03T22:20:33.279Z,5.40
2023-02-03T22:22:59.731Z,4.00
2023-02-03T22:25:26.206Z,4.00
2023-02-03T22:27:53.170Z,4.00
2023-02-03T22:30:19.705Z,4.00
2023-02-03T22:32:46.171Z,4.67
2023-02-03T22:35:12.807Z,4.00
2023-02-03T22:37:39.255Z,6.00
2023-02-03T22:40:05.850Z,4.00
2023-02-03T22:42:32.312Z,4.00
2023-02-03T22:44:58.803Z,3.40
2023-02-03T22:47:26.387Z,4.75
2023-02-03T22:49:52.870Z,5.00
2023-02-03T22:52:19.374Z,5.00
2023-02-03T22:54:45.869Z,3.00
2023-02-03T22:57:12.369Z,4.00
2023-02-03T22:59:38.852Z,4.60
2023-02-03T23:02:05.319Z,3.50
2023-02-03T23:04:31.867Z,4.00
2023-02-03T23:06:58.383Z,3.00
2023-02-03T23:09:24.902Z,3.00
2023-02-03T23:11:51.393Z,3.00
2023-02-03T23:14:17.850Z,4.00
2023-02-03T23:16:44.365Z,4.20
2023-02-03T23:19:11.098Z,4.00
2023-02-03T23:21:37.565Z,5.00
2023-02-03T23:24:04.189Z,4.00
2023-02-03T23:26:30.708Z,3.50
2023-02-03T23:28:57.291Z,4.00
2023-02-03T23:31:23.881Z,3.00
2023-02-03T23:34:09.217Z,4.00
2023-02-03T23:36:35.690Z,3.00
2023-02-03T23:39:02.192Z,4.00
2023-02-03T23:41:28.700Z,3.00
2023-02-03T23:43:55.200Z,4.00
2023-02-03T23:46:21.727Z,3.00
2023-02-03T23:48:48.375Z,3.00
2023-02-03T23:51:14.837Z,3.00
2023-02-03T23:53:41.268Z,3.00
2023-02-03T23:56:07.735Z,3.00
2023-02-03T23:58:34.251Z,3.00
